RPLL/MNL METAR and TAF weather

Enter ICAO airport designator
Station Type Date Time Source
RPLL METAR 2022/12/10 01:00 UTC NOAA

RPLL 100100Z 35005KT 320V020 8000 SCT023 BKN090 27/24 Q1006 NOSIG RMK A2971


Station Type Date Time Source
RPLL Decoded METAR 2022/12/10 01:00 UTC NOAA

Ninoy Aquino Inter-National Airport, Philippines (RPLL) 14-31N 121-00E 15M
Dec 09, 2022 - 08:00 PM EST / 2022.12.10 0100 UTC
Wind: from the N (350 degrees) at 6 MPH (5 KT) (direction variable):0
Visibility: 4 mile(s):0
Sky conditions: mostly cloudy
Temperature: 80 F (27 C)
Dew Point: 75 F (24 C)
Relative Humidity: 83%
Pressure (altimeter): 29.71 in. Hg (1006 hPa)
ob: RPLL 100100Z 35005KT 320V020 8000 SCT023 BKN090 27/24 Q1006 NOSIG RMK A2971
cycle: 1

Station Type Date Time Source
RPLL TAF 2022/12/09 18:03 UTC NOAA

TAF RPLL 091700Z 0918/1024 10007KT 9999 FEW025 BKN100 TX29/1006Z TN25/0920Z
TEMPO 0918/0924 VRB03KT -RA FEW023 BKN090
TEMPO 1000/1006 7000 -RA SCT023 OVC090

Example: see airport list